createdAt,value
2023-03-07T00:02:13.919Z,3.32
2023-03-07T00:04:45.896Z,3.38
2023-03-07T00:07:14.005Z,3.03
2023-03-07T00:09:41.840Z,3.57
2023-03-07T00:12:10.451Z,3.48
2023-03-07T00:14:38.151Z,3.83
2023-03-07T00:17:07.052Z,3.59
2023-03-07T00:19:34.582Z,3.61
2023-03-07T00:22:02.096Z,3.68
2023-03-07T00:24:29.667Z,3.66
2023-03-07T00:26:57.163Z,3.33
2023-03-07T00:29:24.663Z,3.43
2023-03-07T00:31:52.137Z,3.35
2023-03-07T00:34:20.981Z,3.26
2023-03-07T00:36:48.442Z,3.19
2023-03-07T00:39:15.931Z,3.56
2023-03-07T00:41:43.418Z,3.79
2023-03-07T00:44:10.922Z,3.69
2023-03-07T00:46:38.421Z,3.40
2023-03-07T00:49:05.927Z,3.53
2023-03-07T00:51:34.749Z,3.14
2023-03-07T00:54:02.215Z,3.24
2023-03-07T00:56:29.724Z,3.54
2023-03-07T00:58:57.227Z,3.93
2023-03-07T01:01:26.725Z,4.15
2023-03-07T01:03:55.878Z,3.52
2023-03-07T01:06:25.515Z,3.46
2023-03-07T01:08:54.990Z,3.37
2023-03-07T01:11:22.556Z,3.51
2023-03-07T01:13:50.132Z,3.43
2023-03-07T01:16:19.736Z,3.82
2023-03-07T01:18:50.309Z,3.39
2023-03-07T01:21:20.064Z,3.32
2023-03-07T01:23:47.881Z,3.91
2023-03-07T01:26:18.691Z,3.71
2023-03-07T01:28:46.863Z,3.60
2023-03-07T01:31:14.500Z,3.32
2023-03-07T01:33:42.689Z,2.94
2023-03-07T01:36:18.094Z,2.85
2023-03-07T01:38:45.671Z,3.13
2023-03-07T01:41:13.169Z,3.31
2023-03-07T01:43:42.185Z,3.62
2023-03-07T01:46:45.192Z,3.49
2023-03-07T01:49:19.439Z,3.83
2023-03-07T01:51:51.694Z,3.69
2023-03-07T01:54:21.488Z,3.35
2023-03-07T01:56:49.267Z,3.28
2023-03-07T01:59:25.265Z,3.16
2023-03-07T02:01:53.012Z,3.04
2023-03-07T02:04:26.489Z,2.94
2023-03-07T02:06:53.981Z,2.89
2023-03-07T02:09:23.667Z,2.79
2023-03-07T02:11:51.406Z,2.71
2023-03-07T02:14:20.253Z,2.75
2023-03-07T02:16:47.822Z,2.90
2023-03-07T02:19:28.786Z,2.93
2023-03-07T02:22:06.538Z,3.06
2023-03-07T02:24:41.152Z,3.00
2023-03-07T02:27:10.455Z,2.96
2023-03-07T02:29:37.947Z,3.30
2023-03-07T02:32:05.800Z,2.91
2023-03-07T02:34:33.470Z,2.91
2023-03-07T02:37:05.870Z,3.15
2023-03-07T02:39:34.061Z,3.13
2023-03-07T02:42:05.970Z,2.78
2023-03-07T02:44:34.936Z,2.65
2023-03-07T02:47:02.483Z,2.84
2023-03-07T02:49:29.981Z,2.83
2023-03-07T02:52:00.508Z,2.93
2023-03-07T02:54:28.032Z,2.80
2023-03-07T02:56:55.815Z,2.70
2023-03-07T02:59:23.445Z,2.61
2023-03-07T03:01:52.302Z,2.77
2023-03-07T03:04:19.831Z,2.41
2023-03-07T03:06:47.367Z,2.55
2023-03-07T03:09:14.896Z,3.07
2023-03-07T03:11:42.419Z,2.99
2023-03-07T03:14:09.909Z,2.85
2023-03-07T03:16:37.468Z,2.59
2023-03-07T03:19:06.468Z,2.65
2023-03-07T03:21:34.894Z,2.40
2023-03-07T03:24:05.863Z,2.45
2023-03-07T03:26:33.516Z,2.45
2023-03-07T03:29:01.084Z,2.49
2023-03-07T03:31:30.366Z,2.52
2023-03-07T03:33:58.449Z,2.48
2023-03-07T03:36:28.877Z,2.07
2023-03-07T03:38:58.048Z,2.32
2023-03-07T03:41:26.387Z,2.19
2023-03-07T03:43:53.886Z,2.12
2023-03-07T03:46:21.425Z,2.31
2023-03-07T03:48:53.326Z,2.36
2023-03-07T03:51:20.868Z,2.11
2023-03-07T03:53:50.224Z,2.33
2023-03-07T03:56:19.490Z,2.65
2023-03-07T03:58:48.653Z,2.41
2023-03-07T04:01:16.733Z,2.45
2023-03-07T04:03:45.879Z,2.42
2023-03-07T04:06:15.983Z,2.18
2023-03-07T04:08:44.282Z,2.37
2023-03-07T04:11:13.473Z,2.30
2023-03-07T04:13:41.167Z,2.26
2023-03-07T04:16:09.704Z,2.23
2023-03-07T04:18:37.627Z,2.28
2023-03-07T04:21:06.128Z,2.11
2023-03-07T04:23:34.872Z,2.08
2023-03-07T04:26:04.569Z,2.21
2023-03-07T04:28:45.497Z,2.24
2023-03-07T04:31:14.833Z,2.31
2023-03-07T04:33:43.334Z,2.36
2023-03-07T04:36:11.673Z,2.41
2023-03-07T04:38:40.558Z,2.51
2023-03-07T04:41:08.770Z,2.66
2023-03-07T04:43:37.631Z,2.81
2023-03-07T04:46:05.539Z,2.71
2023-03-07T04:48:33.085Z,2.67
2023-03-07T04:51:00.763Z,2.82
2023-03-07T04:53:28.243Z,2.58
2023-03-07T04:55:59.514Z,2.52
2023-03-07T04:58:27.380Z,2.70
2023-03-07T05:00:57.735Z,2.63
2023-03-07T05:03:26.773Z,2.49
2023-03-07T05:05:54.953Z,2.86
2023-03-07T05:08:23.094Z,2.78
2023-03-07T05:10:50.797Z,2.89
2023-03-07T05:13:18.252Z,3.05
2023-03-07T05:15:50.576Z,2.34
2023-03-07T05:18:19.613Z,2.46
2023-03-07T05:20:47.416Z,2.56
2023-03-07T05:23:14.924Z,2.75
2023-03-07T05:25:43.595Z,3.01
2023-03-07T05:28:11.374Z,3.14
2023-03-07T05:30:38.863Z,2.96
2023-03-07T05:33:06.401Z,2.59
2023-03-07T05:35:35.225Z,2.75
2023-03-07T05:38:02.853Z,2.90
2023-03-07T05:40:30.308Z,2.71
2023-03-07T05:42:57.806Z,2.65
2023-03-07T05:45:25.294Z,2.59
2023-03-07T05:47:52.777Z,2.67
2023-03-07T05:50:21.001Z,2.96
2023-03-07T05:52:49.836Z,3.08
2023-03-07T05:55:18.051Z,3.52
2023-03-07T05:57:45.544Z,3.21
2023-03-07T06:00:14.213Z,2.97
2023-03-07T06:02:42.321Z,2.70
2023-03-07T06:05:10.520Z,2.90
2023-03-07T06:07:38.063Z,3.29
2023-03-07T06:10:08.379Z,3.22
2023-03-07T06:12:35.825Z,2.97
2023-03-07T06:15:03.358Z,3.08
2023-03-07T06:17:30.807Z,3.31
2023-03-07T06:19:58.299Z,2.82
2023-03-07T06:22:25.837Z,2.83
2023-03-07T06:24:54.964Z,2.54
2023-03-07T06:27:23.807Z,2.66
2023-03-07T06:29:51.261Z,2.67
2023-03-07T06:32:18.758Z,2.76
2023-03-07T06:34:46.219Z,2.65
2023-03-07T06:37:13.708Z,2.96
2023-03-07T06:39:41.391Z,2.82
2023-03-07T06:42:09.022Z,3.04
2023-03-07T06:44:37.866Z,2.90
2023-03-07T06:47:05.601Z,2.89
2023-03-07T06:49:33.097Z,3.04
2023-03-07T06:52:00.552Z,2.70
2023-03-07T06:54:27.998Z,2.86
2023-03-07T06:56:55.490Z,2.78
2023-03-07T06:59:23.023Z,2.93
2023-03-07T07:01:51.939Z,2.65
2023-03-07T07:04:19.423Z,2.89
2023-03-07T07:06:46.880Z,3.06
2023-03-07T07:09:14.948Z,3.35
2023-03-07T07:11:42.423Z,3.69
2023-03-07T07:14:09.874Z,3.51
2023-03-07T07:16:37.398Z,3.31
2023-03-07T07:19:06.215Z,3.22
2023-03-07T07:21:33.673Z,3.42
2023-03-07T07:24:01.200Z,3.66
2023-03-07T07:26:28.671Z,3.96
2023-03-07T07:28:56.346Z,3.80
2023-03-07T07:31:23.885Z,3.79
2023-03-07T07:33:51.707Z,3.81
2023-03-07T07:36:22.808Z,3.81
2023-03-07T07:38:50.397Z,4.02
2023-03-07T07:41:19.090Z,4.21
2023-03-07T07:43:48.304Z,4.53
2023-03-07T07:46:15.813Z,4.60
2023-03-07T07:48:43.352Z,4.52
2023-03-07T07:51:10.833Z,4.44
2023-03-07T07:53:39.650Z,4.34
2023-03-07T07:56:07.667Z,3.97
2023-03-07T07:58:35.488Z,4.33
2023-03-07T08:01:02.961Z,3.98
2023-03-07T08:03:30.469Z,4.08
2023-03-07T08:05:57.980Z,4.20
2023-03-07T08:08:26.102Z,4.39
2023-03-07T08:10:54.918Z,4.47
2023-03-07T08:13:22.419Z,4.57
2023-03-07T08:15:49.937Z,4.75
2023-03-07T08:18:17.634Z,4.58
2023-03-07T08:20:45.106Z,4.93
2023-03-07T08:23:12.656Z,4.82
2023-03-07T08:25:40.262Z,4.71
2023-03-07T08:28:09.121Z,4.89
2023-03-07T08:30:37.142Z,4.94
2023-03-07T08:33:04.714Z,5.32
2023-03-07T08:35:32.598Z,5.19
2023-03-07T08:38:00.669Z,4.86
2023-03-07T08:40:29.276Z,4.66
2023-03-07T08:42:56.748Z,4.46
2023-03-07T08:45:25.624Z,4.66
2023-03-07T08:47:54.431Z,4.59
2023-03-07T08:50:22.009Z,4.59
2023-03-07T08:52:49.641Z,5.06
2023-03-07T08:55:17.703Z,5.08
2023-03-07T08:57:47.309Z,4.85
2023-03-07T09:00:15.971Z,4.99
2023-03-07T09:02:44.795Z,5.20
2023-03-07T09:05:12.285Z,5.24
2023-03-07T09:07:39.846Z,5.41
2023-03-07T09:10:08.155Z,5.82
2023-03-07T09:12:36.053Z,5.73
2023-03-07T09:15:03.622Z,5.41
2023-03-07T09:17:31.318Z,5.52
2023-03-07T09:20:00.138Z,5.48
2023-03-07T09:22:28.062Z,5.16
2023-03-07T09:24:55.554Z,5.03
2023-03-07T09:27:23.026Z,5.45
2023-03-07T09:29:50.520Z,5.85
2023-03-07T09:32:18.014Z,6.24
2023-03-07T09:34:46.597Z,7.05
2023-03-07T09:37:15.810Z,7.30
2023-03-07T09:39:43.287Z,7.01
2023-03-07T09:42:22.807Z,7.01
2023-03-07T09:45:04.879Z,6.73
2023-03-07T09:48:11.958Z,7.09
2023-03-07T09:50:45.991Z,7.13
2023-03-07T09:53:23.342Z,6.14
2023-03-07T09:55:52.765Z,7.22
2023-03-07T09:58:25.060Z,7.69
2023-03-07T10:00:57.561Z,7.43
2023-03-07T10:03:34.562Z,7.22
2023-03-07T10:06:13.258Z,7.40
2023-03-07T10:08:42.121Z,8.19
2023-03-07T10:11:23.987Z,7.81
2023-03-07T10:14:09.899Z,8.02
2023-03-07T10:16:47.916Z,8.22
2023-03-07T10:19:25.845Z,7.80
2023-03-07T10:22:00.366Z,7.35
2023-03-07T10:24:41.963Z,7.07
2023-03-07T10:27:10.984Z,7.49
2023-03-07T10:29:45.784Z,7.77
2023-03-07T10:32:20.986Z,7.91
2023-03-07T10:34:54.133Z,7.36
2023-03-07T10:37:25.775Z,7.22
2023-03-07T10:39:57.573Z,7.44
2023-03-07T10:42:36.049Z,8.10
2023-03-07T10:45:04.400Z,8.58
2023-03-07T10:47:31.854Z,8.95
2023-03-07T10:50:14.219Z,8.44
2023-03-07T10:52:48.511Z,8.70
2023-03-07T10:55:39.511Z,8.88
2023-03-07T10:58:15.086Z,8.88
2023-03-07T11:00:44.304Z,8.19
2023-03-07T11:03:25.016Z,8.20
2023-03-07T11:05:52.539Z,8.38
2023-03-07T11:08:28.462Z,8.36
2023-03-07T11:10:57.290Z,8.64
2023-03-07T11:13:25.685Z,8.63
2023-03-07T11:16:11.412Z,8.29
2023-03-07T11:18:42.865Z,7.57
2023-03-07T11:21:29.065Z,7.68
2023-03-07T11:24:01.010Z,8.65
2023-03-07T11:26:33.756Z,8.70
2023-03-07T11:29:10.637Z,8.14
2023-03-07T11:31:48.010Z,8.45
2023-03-07T11:34:25.179Z,8.30
2023-03-07T11:36:57.084Z,8.27
2023-03-07T11:39:34.218Z,8.61
2023-03-07T11:42:09.304Z,8.40
2023-03-07T11:44:46.030Z,8.23
2023-03-07T11:47:25.165Z,7.92
2023-03-07T11:50:06.544Z,8.11
2023-03-07T11:52:52.925Z,8.12
2023-03-07T11:55:27.733Z,7.60
2023-03-07T11:58:15.509Z,6.93
2023-03-07T12:00:53.272Z,7.40
2023-03-07T12:03:37.021Z,7.08
2023-03-07T12:06:35.198Z,7.40
2023-03-07T12:09:24.547Z,7.12
2023-03-07T12:12:05.188Z,7.22
2023-03-07T12:14:43.229Z,7.18
2023-03-07T12:17:23.803Z,7.09
2023-03-07T12:20:16.006Z,7.49
2023-03-07T12:22:54.572Z,8.03
2023-03-07T12:25:26.299Z,7.34
2023-03-07T12:28:03.777Z,7.62
2023-03-07T12:30:42.041Z,7.05
2023-03-07T12:33:22.198Z,7.44
2023-03-07T12:35:54.479Z,6.85
2023-03-07T12:38:36.175Z,7.80
2023-03-07T12:41:10.596Z,8.12
2023-03-07T12:43:45.325Z,8.16
2023-03-07T12:46:20.336Z,7.99
2023-03-07T12:48:55.061Z,7.80
2023-03-07T12:51:27.792Z,7.34
2023-03-07T12:54:01.600Z,7.43
2023-03-07T12:56:34.843Z,7.45
2023-03-07T12:59:10.047Z,7.81
2023-03-07T13:01:42.108Z,7.22
2023-03-07T13:04:18.283Z,7.53
2023-03-07T13:06:47.078Z,7.68
2023-03-07T13:09:19.758Z,7.27
2023-03-07T13:12:31.116Z,7.55
2023-03-07T13:14:59.743Z,7.27
2023-03-07T13:18:02.836Z,7.94
2023-03-07T13:20:42.833Z,6.45
2023-03-07T13:23:23.816Z,6.40
2023-03-07T13:25:58.977Z,6.99
2023-03-07T13:28:45.215Z,6.52
2023-03-07T13:31:45.260Z,6.86
2023-03-07T13:34:46.772Z,7.03
2023-03-07T13:37:52.228Z,6.61
2023-03-07T13:40:55.663Z,6.04
2023-03-07T13:43:51.594Z,6.13
2023-03-07T13:46:54.119Z,6.14
2023-03-07T13:49:35.802Z,6.15
2023-03-07T13:52:31.041Z,5.94
2023-03-07T13:55:00.362Z,5.80
2023-03-07T13:57:34.751Z,5.40
2023-03-07T14:00:04.572Z,5.33
2023-03-07T14:02:32.534Z,5.52
2023-03-07T14:05:03.794Z,5.85
2023-03-07T14:07:35.777Z,6.40
2023-03-07T14:10:21.929Z,6.52
2023-03-07T14:13:09.568Z,6.48
2023-03-07T14:15:47.433Z,7.02
2023-03-07T14:18:25.178Z,7.63
2023-03-07T14:20:59.516Z,7.75
2023-03-07T14:23:54.666Z,8.29
2023-03-07T14:26:26.965Z,8.31
2023-03-07T14:28:59.742Z,8.09
2023-03-07T14:31:30.570Z,7.60
2023-03-07T14:33:58.670Z,7.14
2023-03-07T14:36:29.850Z,7.06
2023-03-07T14:39:02.171Z,7.48
2023-03-07T14:41:48.237Z,7.27
2023-03-07T14:44:36.859Z,7.59
2023-03-07T14:47:20.986Z,7.50
2023-03-07T14:49:56.287Z,6.35
2023-03-07T14:52:31.346Z,5.94
2023-03-07T14:55:04.070Z,6.03
2023-03-07T14:57:34.798Z,5.89
2023-03-07T15:00:16.648Z,5.97
2023-03-07T15:02:49.108Z,5.68
2023-03-07T15:05:17.840Z,5.69
2023-03-07T15:07:47.865Z,5.91
2023-03-07T15:10:18.808Z,5.86
2023-03-07T15:12:51.459Z,5.78
2023-03-07T15:15:29.781Z,5.54
2023-03-07T15:18:04.650Z,5.49
2023-03-07T15:20:32.859Z,6.08
2023-03-07T15:23:05.127Z,5.64
2023-03-07T15:25:38.627Z,5.75
2023-03-07T15:28:08.196Z,5.84
2023-03-07T15:30:38.039Z,5.57
2023-03-07T15:33:17.227Z,5.71
2023-03-07T15:35:46.986Z,5.20
2023-03-07T15:38:18.910Z,5.38
2023-03-07T15:40:47.712Z,5.14
2023-03-07T15:43:25.862Z,5.26
2023-03-07T15:46:05.700Z,5.06
2023-03-07T15:48:44.027Z,4.70
2023-03-07T15:51:16.525Z,4.78
2023-03-07T15:53:46.463Z,4.80
2023-03-07T15:56:26.203Z,4.77
2023-03-07T15:59:00.373Z,4.73
2023-03-07T16:01:28.872Z,4.82
2023-03-07T16:03:58.270Z,4.94
2023-03-07T16:06:39.750Z,4.90
2023-03-07T16:09:08.221Z,5.17
2023-03-07T16:11:38.214Z,4.79
2023-03-07T16:14:05.996Z,5.02
2023-03-07T16:16:33.680Z,5.09
2023-03-07T16:19:01.189Z,4.70
2023-03-07T16:21:28.686Z,4.83
2023-03-07T16:23:56.191Z,4.66
2023-03-07T16:26:25.459Z,4.50
2023-03-07T16:28:55.063Z,4.44
2023-03-07T16:31:22.632Z,4.37
2023-03-07T16:33:50.166Z,4.23
2023-03-07T16:36:17.972Z,4.34
2023-03-07T16:38:47.419Z,4.27
2023-03-07T16:41:18.017Z,4.03
2023-03-07T16:43:46.927Z,4.15
2023-03-07T16:46:18.151Z,3.94
2023-03-07T16:48:46.295Z,3.93
2023-03-07T16:51:16.746Z,4.13
2023-03-07T16:53:44.784Z,3.97
2023-03-07T16:56:26.005Z,3.94
2023-03-07T16:58:54.147Z,4.14
2023-03-07T17:01:22.962Z,4.02
2023-03-07T17:03:50.444Z,4.01
2023-03-07T17:06:21.658Z,3.74
2023-03-07T17:08:52.955Z,3.76
2023-03-07T17:11:23.005Z,3.81
2023-03-07T17:13:53.669Z,3.62
2023-03-07T17:16:22.853Z,3.51
2023-03-07T17:18:50.413Z,3.76
2023-03-07T17:21:19.656Z,3.49
2023-03-07T17:23:49.069Z,3.52
2023-03-07T17:26:19.926Z,3.86
2023-03-07T17:28:47.605Z,3.90
2023-03-07T17:31:15.146Z,4.13
2023-03-07T17:33:43.973Z,4.40
2023-03-07T17:36:12.413Z,4.57
2023-03-07T17:38:39.885Z,4.28
2023-03-07T17:41:07.375Z,4.09
2023-03-07T17:43:34.841Z,4.22
2023-03-07T17:46:02.765Z,3.86
2023-03-07T17:48:30.505Z,3.79
2023-03-07T17:50:59.307Z,3.92
2023-03-07T17:53:26.906Z,4.19
2023-03-07T17:55:54.341Z,4.19
2023-03-07T17:58:21.793Z,4.14
2023-03-07T18:00:49.234Z,4.16
2023-03-07T18:03:16.679Z,4.40
2023-03-07T18:05:44.125Z,4.31
2023-03-07T18:08:12.941Z,4.65
2023-03-07T18:10:40.444Z,4.44
2023-03-07T18:13:09.723Z,4.09
2023-03-07T18:15:37.306Z,4.06
2023-03-07T18:18:06.771Z,4.39
2023-03-07T18:20:34.203Z,4.27
2023-03-07T18:23:01.654Z,4.00
2023-03-07T18:25:30.641Z,4.40
2023-03-07T18:28:01.306Z,4.55
2023-03-07T18:30:29.176Z,5.10
2023-03-07T18:32:56.672Z,4.88
2023-03-07T18:35:24.381Z,4.70
2023-03-07T18:37:51.822Z,4.98
2023-03-07T18:40:21.955Z,4.87
2023-03-07T18:42:50.764Z,5.08
2023-03-07T18:45:18.520Z,5.24
2023-03-07T18:47:46.006Z,5.47
2023-03-07T18:50:13.445Z,5.63
2023-03-07T18:52:40.885Z,5.46
2023-03-07T18:55:09.054Z,5.50
2023-03-07T18:57:36.615Z,5.24
2023-03-07T19:00:06.997Z,5.41
2023-03-07T19:02:34.567Z,5.14
2023-03-07T19:05:02.133Z,5.18
2023-03-07T19:07:31.292Z,5.09
2023-03-07T19:09:59.209Z,5.58
2023-03-07T19:12:26.657Z,5.09
2023-03-07T19:14:54.134Z,5.18
2023-03-07T19:17:22.957Z,4.72
2023-03-07T19:19:52.826Z,5.00
2023-03-07T19:22:25.308Z,5.40
2023-03-07T19:24:53.883Z,5.09
2023-03-07T19:27:21.432Z,4.92
2023-03-07T19:29:48.940Z,4.48
2023-03-07T19:32:17.856Z,4.30
2023-03-07T19:34:49.448Z,4.22
2023-03-07T19:37:16.938Z,4.15
2023-03-07T19:39:44.429Z,4.52
2023-03-07T19:42:11.892Z,4.64
2023-03-07T19:44:39.354Z,4.69
2023-03-07T19:47:06.842Z,4.97
2023-03-07T19:49:35.650Z,4.82
2023-03-07T19:52:04.534Z,4.63
2023-03-07T19:54:32.566Z,4.63
2023-03-07T19:57:00.047Z,4.29
2023-03-07T19:59:27.602Z,4.23
2023-03-07T20:01:55.095Z,4.75
2023-03-07T20:04:22.640Z,4.71
2023-03-07T20:06:50.119Z,4.09
2023-03-07T20:09:19.262Z,4.41
2023-03-07T20:11:46.860Z,4.41
2023-03-07T20:14:14.442Z,4.19
2023-03-07T20:16:41.966Z,4.08
2023-03-07T20:19:10.794Z,4.49
2023-03-07T20:21:40.079Z,4.98
2023-03-07T20:24:08.803Z,5.09
2023-03-07T20:26:39.217Z,4.50
2023-03-07T20:29:08.492Z,5.13
2023-03-07T20:31:36.716Z,4.94
2023-03-07T20:34:04.405Z,4.77
2023-03-07T20:36:33.596Z,4.28
2023-03-07T20:39:02.847Z,4.24
2023-03-07T20:41:32.204Z,4.08
2023-03-07T20:44:03.390Z,4.42
2023-03-07T20:46:32.141Z,4.55
2023-03-07T20:49:00.963Z,4.43
2023-03-07T20:51:30.916Z,4.36
2023-03-07T20:54:00.474Z,4.47
2023-03-07T20:56:29.777Z,4.33
2023-03-07T20:58:58.230Z,4.77
2023-03-07T21:01:28.788Z,4.49
2023-03-07T21:03:56.638Z,4.57
2023-03-07T21:06:24.171Z,4.65
2023-03-07T21:08:51.662Z,4.56
2023-03-07T21:11:20.702Z,4.89
2023-03-07T21:13:49.653Z,5.16
2023-03-07T21:16:19.141Z,4.56
2023-03-07T21:18:49.070Z,4.56
2023-03-07T21:21:18.612Z,4.55
2023-03-07T21:23:46.278Z,4.70
2023-03-07T21:26:15.712Z,4.57
2023-03-07T21:28:43.905Z,4.40
2023-03-07T21:31:17.323Z,4.69
2023-03-07T21:33:46.712Z,4.86
2023-03-07T21:36:16.914Z,4.77
2023-03-07T21:38:46.094Z,4.53
2023-03-07T21:41:14.608Z,4.52
2023-03-07T21:43:42.343Z,4.55
2023-03-07T21:46:11.549Z,4.35
2023-03-07T21:48:39.613Z,4.26
2023-03-07T21:51:07.866Z,4.24
2023-03-07T21:53:36.976Z,4.22
2023-03-07T21:56:06.797Z,3.88
2023-03-07T21:58:35.218Z,3.58
2023-03-07T22:01:10.327Z,3.49
2023-03-07T22:03:37.802Z,3.62
2023-03-07T22:06:07.043Z,3.79
2023-03-07T22:08:35.980Z,4.08
2023-03-07T22:11:05.441Z,4.18
2023-03-07T22:13:34.580Z,4.32
2023-03-07T22:16:05.360Z,4.33
2023-03-07T22:18:33.387Z,4.37
2023-03-07T22:21:00.988Z,4.38
2023-03-07T22:23:28.444Z,4.34
2023-03-07T22:25:57.238Z,4.16
2023-03-07T22:28:24.720Z,4.03
2023-03-07T22:30:52.165Z,4.49
2023-03-07T22:33:19.635Z,4.14
2023-03-07T22:35:56.434Z,4.65
2023-03-07T22:38:23.944Z,4.49
2023-03-07T22:40:51.495Z,4.58
2023-03-07T22:43:20.365Z,4.63
2023-03-07T22:45:49.910Z,4.41
2023-03-07T22:48:17.550Z,4.45
2023-03-07T22:50:45.082Z,4.50
2023-03-07T22:53:12.552Z,3.95
2023-03-07T22:55:41.828Z,3.92
2023-03-07T22:58:09.853Z,3.95
2023-03-07T23:00:41.128Z,3.83
2023-03-07T23:03:08.662Z,3.83
2023-03-07T23:05:37.071Z,4.15
2023-03-07T23:08:05.536Z,3.69
2023-03-07T23:10:33.271Z,3.76
2023-03-07T23:13:00.733Z,3.92
2023-03-07T23:15:28.569Z,3.89
2023-03-07T23:17:58.005Z,3.86
2023-03-07T23:20:26.277Z,3.93
2023-03-07T23:22:54.208Z,4.33
2023-03-07T23:25:22.193Z,4.48
2023-03-07T23:27:49.703Z,4.24
2023-03-07T23:30:18.298Z,4.25
2023-03-07T23:32:46.106Z,4.31
2023-03-07T23:35:15.178Z,4.85
2023-03-07T23:37:42.666Z,4.68
2023-03-07T23:40:12.831Z,4.28
2023-03-07T23:42:40.321Z,4.75
2023-03-07T23:45:08.768Z,4.49
2023-03-07T23:47:36.264Z,4.88
2023-03-07T23:50:03.867Z,4.78
2023-03-07T23:52:32.706Z,5.03
2023-03-07T23:55:00.199Z,4.72
2023-03-07T23:57:27.649Z,4.89
2023-03-07T23:59:55.523Z,4.88
